Time;durP1;ratioP1;P1;durP2;ratioP2;P2;SDS_P1;SDS_P2;PMS_P1;PMS_P2;Temp;Humidity;BMP_temperature;BMP_pressure;BME280_temperature;BME280_humidity;BME280_pressure;Samples;Min_cycle;Max_cycle;Signal;HPM_P1;HPM_P2
2022/08/11 00:02:38;;;;;;;2.87;2.40;;;;;;;21.48;41.57;99189.59;6921277;28;20278;-79
2022/08/11 00:06:00;;;;;;;4.53;2.27;;;;;;;21.62;41.10;99168.81;6921837;28;20290;-78
2022/08/11 00:09:32;;;;;;;2.50;2.30;;;;;;;21.72;41.21;99185.38;6920721;28;20766;-79
2022/08/11 00:12:55;;;;;;;2.63;2.37;;;;;;;21.81;40.86;99172.78;6923261;28;20706;-79
2022/08/11 00:16:19;;;;;;;3.77;2.50;;;;;;;21.58;41.08;99185.00;6921292;28;20212;-79
2022/08/11 00:19:45;;;;;;;4.37;2.20;;;;;;;21.17;42.04;99179.50;6921128;28;20209;-79
2022/08/11 00:23:08;;;;;;;3.57;2.53;;;;;;;21.35;41.44;99182.66;6921623;28;20251;-79
2022/08/11 00:26:31;;;;;;;4.60;2.70;;;;;;;21.41;41.32;99189.81;6921538;28;20234;-79
2022/08/11 00:29:53;;;;;;;3.30;2.30;;;;;;;21.55;40.79;99173.72;6920559;28;20296;-78
2022/08/11 00:33:16;;;;;;;2.73;2.30;;;;;;;21.43;41.27;99175.84;6919513;28;20315;-79
2022/08/11 00:36:40;;;;;;;2.80;2.20;;;;;;;20.99;42.47;99187.34;6921040;28;20336;-78
2022/08/11 00:40:03;;;;;;;4.07;2.23;;;;;;;21.13;42.30;99181.97;6925839;28;20227;-78
2022/08/11 00:43:41;;;;;;;3.40;2.40;;;;;;;21.20;41.80;99196.25;6921728;28;20715;-79
2022/08/11 00:47:13;;;;;;;2.40;2.30;;;;;;;21.26;41.74;99180.69;6920606;28;20202;-79
2022/08/11 00:50:42;;;;;;;2.47;2.33;;;;;;;21.47;41.28;99186.03;6919424;28;20256;-79
2022/08/11 00:54:13;;;;;;;2.90;2.60;;;;;;;21.22;41.51;99193.25;6918963;28;20240;-79
2022/08/11 00:57:56;;;;;;;2.70;2.50;;;;;;;21.44;41.42;99192.06;6919609;28;20190;-80
2022/08/11 01:01:27;;;;;;;2.50;2.30;;;;;;;21.34;41.65;99186.50;6920281;28;20249;-79
2022/08/11 01:05:28;;;;;;;2.70;2.50;;;;;;;21.49;40.97;99183.84;6919927;28;20312;-79
2022/08/11 01:09:28;;;;;;;4.13;2.80;;;;;;;21.02;41.99;99184.91;6896729;28;20260;-78
2022/08/11 01:13:00;;;;;;;3.20;2.70;;;;;;;20.87;42.14;99170.22;6915127;28;20320;-79
2022/08/11 01:16:57;;;;;;;4.33;2.50;;;;;;;20.57;42.91;99189.16;6919914;28;20265;-79
2022/08/11 01:20:38;;;;;;;2.70;2.50;;;;;;;20.71;42.69;99193.94;6926476;28;20241;-80
2022/08/11 01:24:43;;;;;;;4.77;2.67;;;;;;;20.59;43.10;99190.56;6946747;28;20251;-79
2022/08/11 01:28:54;;;;;;;3.87;2.83;;;;;;;20.42;43.71;99184.34;6944930;28;20191;-79
2022/08/11 01:33:06;;;;;;;2.63;2.43;;;;;;;20.33;44.25;99185.09;6859229;28;20262;-79
2022/08/11 01:36:57;;;;;;;4.83;2.90;;;;;;;20.35;43.69;99170.00;6919421;28;20258;-79
2022/08/11 01:41:00;;;;;;;2.93;2.70;;;;;;;20.57;43.14;99180.94;6919110;28;20188;-79
2022/08/11 01:44:50;;;;;;;2.83;2.53;;;;;;;20.70;43.04;99170.34;6916065;28;20230;-79
2022/08/11 01:48:19;;;;;;;3.53;3.00;;;;;;;20.83;42.64;99158.13;6919235;28;20201;-79
2022/08/11 01:52:01;;;;;;;2.80;2.60;;;;;;;20.85;42.79;99178.72;6918754;28;20221;-79
2022/08/11 01:55:31;;;;;;;4.20;2.70;;;;;;;21.13;41.89;99181.97;6919520;28;20276;-79
2022/08/11 01:59:02;;;;;;;3.07;2.87;;;;;;;20.33;43.77;99174.13;6918424;28;20299;-79
2022/08/11 02:11:29;;;;;;;3.20;3.00;;;;;;;20.36;43.92;99173.59;6923540;28;20223;-78
2022/08/11 02:13:52;;;;;;;3.27;2.97;;;;;;;20.55;43.42;99180.34;6931623;28;20216;-79
2022/08/11 02:17:17;;;;;;;2.83;2.63;;;;;;;20.43;43.69;99172.31;6973926;28;20187;-80
2022/08/11 02:24:29;;;;;;;3.80;3.00;;;;;;;20.35;44.22;99161.81;6923548;28;20225;-79
2022/08/11 02:27:59;;;;;;;3.57;3.10;;;;;;;20.16;44.46;99160.50;6922247;28;20213;-78
2022/08/11 02:35:13;;;;;;;3.57;3.03;;;;;;;20.20;44.16;99127.97;6926062;28;20220;-79
2022/08/11 02:38:45;;;;;;;6.43;2.97;;;;;;;20.09;44.98;99156.31;6923209;28;20286;-79
2022/08/11 02:42:22;;;;;;;3.97;3.47;;;;;;;20.01;45.01;99163.06;6924147;28;20202;-79
2022/08/11 02:45:54;;;;;;;6.07;3.10;;;;;;;20.15;44.76;99153.41;6925991;28;20229;-79
2022/08/11 02:53:19;;;;;;;3.53;3.03;;;;;;;20.03;45.19;99157.31;6925914;28;20703;-79
2022/08/11 02:56:50;;;;;;;3.73;3.33;;;;;;;20.07;44.53;99150.28;6949474;28;20286;-79
2022/08/11 03:00:14;;;;;;;3.53;3.00;;;;;;;20.01;45.26;99164.97;6954573;28;20233;-78
2022/08/11 03:03:44;;;;;;;3.30;3.03;;;;;;;19.63;45.92;99167.81;6954051;28;20308;-79
2022/08/11 03:07:08;;;;;;;3.33;3.03;;;;;;;19.63;46.11;99174.09;6949617;28;20314;-78
2022/08/11 03:10:36;;;;;;;4.13;3.33;;;;;;;19.60;46.54;99181.97;6949517;28;20386;-78
2022/08/11 03:18:03;;;;;;;3.20;2.90;;;;;;;19.56;46.59;99178.09;6948475;28;20183;-79
2022/08/11 03:21:33;;;;;;;3.83;3.30;;;;;;;19.51;46.98;99178.84;6949861;28;20652;-79
2022/08/11 03:24:58;;;;;;;3.97;3.57;;;;;;;19.26;47.41;99183.13;6949183;28;20260;-80
2022/08/11 03:28:28;;;;;;;3.63;3.33;;;;;;;19.28;47.45;99181.81;6947787;28;20269;-79
2022/08/11 03:31:56;;;;;;;8.10;3.50;;;;;;;19.39;47.15;99177.34;6948441;28;20226;-79
2022/08/11 03:35:18;;;;;;;3.67;3.37;;;;;;;19.54;46.87;99180.25;6948283;28;20290;-79
2022/08/11 03:38:52;;;;;;;3.20;3.00;;;;;;;19.62;46.49;99175.19;6947523;28;20750;-79
2022/08/11 03:42:20;;;;;;;4.50;2.90;;;;;;;19.54;46.61;99185.72;6948253;28;20220;-79
2022/08/11 03:45:56;;;;;;;5.00;3.03;;;;;;;19.63;46.28;99189.69;6949275;28;20753;-77
2022/08/11 03:49:25;;;;;;;4.17;3.13;;;;;;;19.61;46.48;99187.22;6949758;28;20191;-79
2022/08/11 03:52:53;;;;;;;3.30;3.03;;;;;;;19.76;45.93;99183.84;6949946;28;20336;-79
2022/08/11 03:56:42;;;;;;;4.03;3.73;;;;;;;19.34;47.16;99196.41;6950611;28;20273;-78
2022/08/11 04:00:45;;;;;;;4.33;3.47;;;;;;;19.23;47.45;99168.06;6949681;28;20188;-79
2022/08/11 04:04:24;;;;;;;4.13;3.57;;;;;;;19.45;46.81;99184.53;6948892;28;20337;-79
2022/08/11 04:08:28;;;;;;;4.10;3.70;;;;;;;19.28;47.21;99170.88;6948117;28;20199;-79
2022/08/11 04:12:28;;;;;;;3.50;3.20;;;;;;;19.33;47.18;99173.69;6938128;28;20242;-79
2022/08/11 04:16:06;;;;;;;4.17;3.53;;;;;;;19.26;47.66;99192.19;6897997;28;20208;-79
2022/08/11 04:20:08;;;;;;;3.90;3.60;;;;;;;19.40;47.16;99193.47;6926245;28;20254;-79
2022/08/11 04:23:47;;;;;;;3.80;3.33;;;;;;;19.31;47.79;99195.00;6933066;28;20309;-79
2022/08/11 04:28:00;;;;;;;3.90;3.50;;;;;;;19.22;47.74;99192.94;6934025;28;20283;-78
2022/08/11 04:31:39;;;;;;;5.37;3.70;;;;;;;19.23;47.44;99191.84;6836909;28;20249;-79
2022/08/11 04:35:25;;;;;;;4.07;3.77;;;;;;;19.08;48.14;99195.16;6862736;28;20235;-79
2022/08/11 04:39:04;;;;;;;7.37;3.47;;;;;;;18.93;48.85;99181.25;6939734;28;20567;-79
2022/08/11 04:43:20;;;;;;;5.07;3.77;;;;;;;18.94;49.01;99202.06;6949723;28;20261;-78
2022/08/11 04:47:08;;;;;;;3.53;3.17;;;;;;;19.20;48.30;99201.34;6949842;28;20246;-78
2022/08/11 05:02:39;;;;;;;5.67;3.47;;;;;;;19.14;48.48;99204.25;6949449;28;20199;-82
2022/08/11 05:06:50;;;;;;;4.80;3.43;;;;;;;19.09;49.12;99198.69;6950799;28;20234;-82
2022/08/11 05:10:19;;;;;;;5.23;3.47;;;;;;;18.99;49.02;99187.63;6949931;28;20336;-81
2022/08/11 05:36:11;;;;;;;4.93;3.67;;;;;;;20.61;45.50;99199.31;6948483;28;20195;-80
2022/08/11 05:57:59;;;;;;;3.40;3.10;;;;;;;23.24;40.17;99195.31;6953246;28;20199;-81
2022/08/11 06:01:23;;;;;;;3.40;3.10;;;;;;;23.03;41.17;99188.16;6953741;28;20206;-79
2022/08/11 06:04:44;;;;;;;3.30;3.00;;;;;;;23.92;39.17;99197.38;6953157;28;20237;-79
2022/08/11 06:08:07;;;;;;;4.40;3.30;;;;;;;24.11;38.83;99190.13;6954812;28;20212;-80
2022/08/11 06:11:31;;;;;;;4.13;3.07;;;;;;;24.04;38.65;99186.84;6954340;28;20707;-81
2022/08/11 06:14:54;;;;;;;3.93;3.00;;;;;;;24.36;37.41;99178.94;6944020;28;20231;-81
2022/08/11 06:18:16;;;;;;;6.50;3.50;;;;;;;24.70;37.53;99167.97;6953218;28;20262;-82
2022/08/11 06:21:38;;;;;;;6.00;3.10;;;;;;;25.61;36.12;99157.75;6952602;28;20216;-82
2022/08/11 06:25:01;;;;;;;5.20;2.90;;;;;;;25.22;33.73;99188.25;6953413;28;20601;-80
2022/08/11 06:28:31;;;;;;;4.27;2.50;;;;;;;25.48;34.27;99175.84;6951449;28;20205;-81
2022/08/11 06:31:55;;;;;;;3.63;2.87;;;;;;;25.96;32.43;99180.28;6942191;28;20219;-81
2022/08/11 06:35:22;;;;;;;2.83;2.63;;;;;;;25.59;32.99;99188.44;6952657;28;20226;-80
2022/08/11 06:38:57;;;;;;;5.63;3.20;;;;;;;26.12;32.17;99184.50;6952795;28;20199;-80
2022/08/11 06:42:32;;;;;;;4.67;3.00;;;;;;;25.38;33.09;99188.94;6953934;28;20234;-80
2022/08/11 06:46:01;;;;;;;3.17;2.80;;;;;;;25.29;33.33;99158.38;6953337;28;20255;-82
2022/08/11 06:53:12;;;;;;;3.17;2.83;;;;;;;26.40;32.72;99172.50;6951509;28;20291;-81
2022/08/11 07:00:27;;;;;;;3.93;3.10;;;;;;;27.57;30.08;99176.66;6955496;28;20213;-81
2022/08/11 07:03:57;;;;;;;4.63;2.97;;;;;;;28.70;28.56;99189.53;6955179;28;20295;-81
2022/08/11 07:15:42;;;;;;;3.13;2.83;;;;;;;28.73;28.46;99170.28;6928022;28;20190;-83
2022/08/11 07:30:13;;;;;;;3.00;2.70;;;;;;;28.39;29.14;99170.00;6953028;28;20223;-81
2022/08/11 07:33:42;;;;;;;4.23;2.70;;;;;;;27.28;30.94;99178.03;6949125;28;20713;-85
2022/08/11 07:37:09;;;;;;;4.43;2.87;;;;;;;28.64;28.90;99171.34;6953379;28;20183;-81
2022/08/11 07:40:31;;;;;;;5.17;2.90;;;;;;;28.77;28.60;99146.31;6955550;28;20237;-85
2022/08/11 07:43:55;;;;;;;5.97;3.13;;;;;;;28.33;29.26;99164.84;6960446;28;20222;-85
2022/08/11 07:54:38;;;;;;;4.17;2.83;;;;;;;29.03;28.27;99166.00;6950703;28;20281;-81
2022/08/11 08:19:56;;;;;;;6.17;2.70;;;;;;;30.69;26.36;99135.91;6952585;28;20228;-83
2022/08/11 08:23:31;;;;;;;4.80;3.00;;;;;;;30.64;25.36;99133.28;6965223;28;21023;-81
2022/08/11 08:26:59;;;;;;;7.93;3.03;;;;;;;30.31;25.53;99145.97;6953988;28;20212;-85
2022/08/11 08:34:02;;;;;;;5.00;3.10;;;;;;;30.80;25.05;99133.59;6950354;28;20225;-81
2022/08/11 08:37:25;;;;;;;6.80;3.00;;;;;;;30.25;25.40;99152.03;6949870;28;20206;-82
2022/08/11 08:40:47;;;;;;;3.47;2.77;;;;;;;31.56;24.12;99154.94;6939008;28;20209;-81
2022/08/11 08:44:11;;;;;;;3.87;2.23;;;;;;;30.63;24.30;99153.88;6926818;28;20224;-80
2022/08/11 08:47:38;;;;;;;2.60;2.40;;;;;;;30.37;24.71;99143.88;6948418;28;20233;-81
2022/08/11 08:54:43;;;;;;;4.13;2.40;;;;;;;29.78;25.39;99145.31;6951937;28;20229;-82
2022/08/11 08:58:04;;;;;;;2.90;2.60;;;;;;;30.20;24.92;99136.31;6950831;28;20211;-81
2022/08/11 09:01:29;;;;;;;2.50;2.30;;;;;;;30.67;24.29;99142.94;6950828;28;20203;-83
2022/08/11 09:04:52;;;;;;;2.93;2.67;;;;;;;30.84;23.71;99131.78;6950018;28;20227;-81
2022/08/11 09:08:14;;;;;;;3.67;3.00;;;;;;;32.08;22.28;99134.03;6949580;28;20211;-80
2022/08/11 09:11:53;;;;;;;2.37;2.17;;;;;;;30.80;24.05;99144.72;6951028;28;20229;-82
2022/08/11 09:15:16;;;;;;;2.37;2.17;;;;;;;31.16;23.28;99125.66;6935998;28;20226;-82
2022/08/11 09:18:38;;;;;;;4.50;2.27;;;;;;;31.04;23.51;99142.25;6949557;28;20206;-80
2022/08/11 09:29:16;;;;;;;3.27;2.40;;;;;;;30.04;23.74;99137.91;6949120;28;20309;-80
2022/08/11 09:32:39;;;;;;;3.97;2.40;;;;;;;31.47;23.06;99132.66;6948465;28;20234;-80
2022/08/11 09:40:27;;;;;;;3.17;2.47;;;;;;;30.48;23.74;99139.63;6948583;28;20232;-80
2022/08/11 09:47:07;;;;;;;5.80;2.30;;;;;;;31.57;21.42;99128.69;6949421;28;20265;-79
2022/08/11 09:50:28;;;;;;;5.30;2.37;;;;;;;32.03;21.42;99118.31;6949009;28;20729;-80
2022/08/11 09:53:50;;;;;;;2.37;2.17;;;;;;;33.56;20.45;99124.56;6949221;28;20223;-80
2022/08/11 10:00:57;;;;;;;2.43;2.23;;;;;;;31.72;21.81;99142.91;6956685;28;20253;-79
2022/08/11 10:04:24;;;;;;;2.90;2.30;;;;;;;31.51;21.58;99124.44;6948595;28;20239;-80
2022/08/11 10:07:49;;;;;;;3.50;2.23;;;;;;;32.01;20.94;99097.50;6948121;28;20604;-80
2022/08/11 10:11:12;;;;;;;3.83;2.30;;;;;;;32.71;20.74;99114.19;6947982;28;20243;-79
2022/08/11 10:18:48;;;;;;;2.17;1.97;;;;;;;33.39;19.81;99122.78;6947884;28;20202;-79
2022/08/11 10:36:52;;;;;;;4.47;2.20;;;;;;;33.09;19.62;99087.75;6955574;28;20195;-81
2022/08/11 10:40:15;;;;;;;2.47;2.10;;;;;;;31.87;21.32;99094.94;6951304;28;20267;-79
2022/08/11 10:43:39;;;;;;;3.20;2.10;;;;;;;31.77;19.68;99112.06;6953585;28;20234;-79
2022/08/11 11:01:44;;;;;;;3.07;1.90;;;;;;;34.18;17.87;99057.84;6948101;28;20191;-80
2022/08/11 11:05:11;;;;;;;2.07;1.70;;;;;;;35.00;17.28;99068.31;6951883;28;20234;-82
2022/08/11 11:08:52;;;;;;;1.80;1.67;;;;;;;34.70;16.81;99076.28;6949090;28;20678;-80
2022/08/11 11:19:39;;;;;;;2.53;1.60;;;;;;;33.32;17.91;99063.81;6951489;28;20214;-79
2022/08/11 11:23:05;;;;;;;5.20;2.03;;;;;;;33.56;17.82;99049.03;6948329;28;20234;-78
2022/08/11 11:26:41;;;;;;;2.50;2.17;;;;;;;33.19;17.62;99050.94;6950994;28;20242;-79
2022/08/11 11:30:05;;;;;;;2.10;1.90;;;;;;;33.10;17.58;99049.41;6950364;28;20718;-78
2022/08/11 11:33:38;;;;;;;5.17;2.03;;;;;;;32.62;18.04;99044.50;6950609;28;20269;-78
2022/08/11 11:37:00;;;;;;;2.73;1.90;;;;;;;32.87;18.44;99045.41;6950968;28;20289;-78
2022/08/11 11:40:23;;;;;;;2.10;1.90;;;;;;;32.18;18.60;99045.16;6948979;28;20301;-80
2022/08/11 11:43:46;;;;;;;2.03;1.83;;;;;;;32.47;19.08;99025.56;6951208;28;20230;-79
2022/08/11 11:47:08;;;;;;;3.73;1.83;;;;;;;33.51;17.37;99015.72;6941242;28;20228;-78
2022/08/11 11:50:33;;;;;;;2.57;1.90;;;;;;;34.77;16.69;99020.47;6949789;28;20207;-79
2022/08/11 11:53:54;;;;;;;4.10;2.00;;;;;;;34.78;16.61;99021.28;6950308;28;20672;-78
2022/08/11 12:01:16;;;;;;;2.80;1.87;;;;;;;34.36;16.63;99012.44;6950158;28;20200;-79
2022/08/11 12:04:40;;;;;;;2.13;1.93;;;;;;;34.97;16.02;99024.22;6949561;28;20223;-78
2022/08/11 12:08:14;;;;;;;4.93;2.20;;;;;;;33.93;16.60;99017.09;6949175;28;20210;-78
2022/08/11 12:15:18;;;;;;;2.00;1.80;;;;;;;34.70;16.21;99017.44;6959036;28;20222;-78
2022/08/11 12:18:43;;;;;;;3.20;1.87;;;;;;;33.49;16.85;99001.28;6948586;28;20207;-78
2022/08/11 12:29:26;;;;;;;2.40;1.80;;;;;;;34.49;16.53;99005.63;6943381;28;20661;-78
2022/08/11 12:32:47;;;;;;;3.47;2.00;;;;;;;35.06;15.75;98997.63;6941395;28;20317;-78
2022/08/11 12:36:15;;;;;;;5.57;2.10;;;;;;;34.80;16.01;98979.72;6947854;28;20687;-77
2022/08/11 12:46:59;;;;;;;2.00;1.90;;;;;;;34.12;16.60;98941.69;6947718;28;20195;-77
2022/08/11 12:54:08;;;;;;;1.60;1.50;;;;;;;33.92;16.62;98974.31;6920700;28;20240;-78
2022/08/11 13:04:58;;;;;;;2.67;1.93;;;;;;;33.60;16.57;98957.69;6945844;28;20217;-77
2022/08/11 13:08:22;;;;;;;2.43;2.23;;;;;;;33.85;16.42;98957.28;6944592;28;20199;-77
2022/08/11 13:15:25;;;;;;;2.43;1.90;;;;;;;35.42;15.25;98924.47;6946590;28;20600;-77
2022/08/11 13:18:47;;;;;;;2.53;1.93;;;;;;;36.05;14.69;98953.16;6946328;28;20227;-77
2022/08/11 13:22:09;;;;;;;2.57;2.00;;;;;;;34.46;15.90;98939.13;6945680;28;20293;-77
2022/08/11 13:25:32;;;;;;;2.60;2.00;;;;;;;34.03;15.96;98950.22;6946575;28;20273;-77
2022/08/11 13:28:55;;;;;;;2.67;1.70;;;;;;;33.82;16.23;98934.78;6945647;28;20207;-76
2022/08/11 13:32:16;;;;;;;1.80;1.70;;;;;;;34.27;16.08;98940.97;6945555;28;20227;-77
2022/08/11 13:35:39;;;;;;;3.27;1.90;;;;;;;33.27;16.40;98937.44;6946883;28;20179;-76
2022/08/11 13:39:02;;;;;;;3.63;2.00;;;;;;;33.25;16.86;98929.34;6946190;28;20230;-78
2022/08/11 13:42:24;;;;;;;2.33;1.83;;;;;;;35.14;15.17;98928.56;6946374;28;20310;-77
2022/08/11 13:45:47;;;;;;;1.97;1.70;;;;;;;34.42;15.60;98917.81;6946464;28;20700;-77
2022/08/11 13:49:10;;;;;;;2.10;1.90;;;;;;;34.64;15.42;98936.81;6945918;28;20234;-77
2022/08/11 13:52:32;;;;;;;1.93;1.67;;;;;;;33.64;16.21;98927.81;6946240;28;20234;-78
2022/08/11 13:55:54;;;;;;;3.10;2.00;;;;;;;33.44;16.44;98914.81;6946516;28;20207;-77
2022/08/11 13:59:19;;;;;;;1.80;1.70;;;;;;;33.63;16.32;98920.59;6946808;28;20252;-77
2022/08/11 14:02:43;;;;;;;3.77;1.87;;;;;;;34.27;15.13;98910.19;6948392;28;20707;-77
2022/08/11 14:06:08;;;;;;;1.80;1.70;;;;;;;34.33;15.78;98920.78;6951502;28;20207;-78
2022/08/11 14:09:35;;;;;;;1.83;1.60;;;;;;;35.04;15.35;98912.28;6951561;28;20261;-78
2022/08/11 14:16:41;;;;;;;2.90;1.80;;;;;;;33.83;15.61;98895.28;6951442;28;20641;-78
2022/08/11 14:20:08;;;;;;;2.03;1.90;;;;;;;35.02;14.73;98892.22;6950981;28;20207;-78
2022/08/11 14:23:33;;;;;;;2.60;1.90;;;;;;;34.52;15.37;98883.66;6946039;28;20252;-77
2022/08/11 14:26:54;;;;;;;3.30;1.77;;;;;;;33.26;15.81;98893.84;6924628;28;20211;-78
2022/08/11 14:33:54;;;;;;;3.43;1.90;;;;;;;34.06;15.71;98890.75;6924046;28;20231;-78
2022/08/11 14:37:19;;;;;;;2.10;1.90;;;;;;;34.52;14.74;98898.50;6927522;28;20204;-78
2022/08/11 14:48:02;;;;;;;2.90;1.80;;;;;;;33.24;16.01;98882.19;6923976;28;20565;-78
2022/08/11 14:51:24;;;;;;;3.13;1.80;;;;;;;33.89;15.60;98870.69;6924589;28;20219;-78
2022/08/11 14:58:32;;;;;;;3.83;2.00;;;;;;;34.57;14.69;98858.19;6950729;28;20702;-78
2022/08/11 15:05:33;;;;;;;4.77;2.17;;;;;;;32.30;16.22;98857.44;6925009;28;20282;-78
2022/08/11 15:08:55;;;;;;;3.20;1.60;;;;;;;32.62;16.13;98840.63;6944754;28;20300;-78
2022/08/11 15:12:18;;;;;;;1.93;1.83;;;;;;;34.23;15.81;98853.22;6950875;28;20288;-79
2022/08/11 15:19:20;;;;;;;4.00;1.90;;;;;;;34.88;14.98;98844.19;6950831;28;20184;-80
2022/08/11 15:37:25;;;;;;;6.27;1.60;;;;;;;34.51;15.54;98840.84;6951459;28;20183;-80
2022/08/11 15:37:37;;;;;;;3.87;2.13;;;;;;;35.17;15.56;98835.28;6950255;28;20196;-80
2022/08/11 15:48:30;;;;;;;3.20;2.17;;;;;;;33.96;15.79;98832.50;6951903;28;20191;-80
2022/08/11 15:51:56;;;;;;;2.07;1.70;;;;;;;34.74;15.18;98830.63;6950136;28;20234;-79
2022/08/11 15:55:18;;;;;;;1.73;1.63;;;;;;;33.55;15.90;98823.69;6949866;28;20312;-80
2022/08/11 16:06:04;;;;;;;2.03;1.93;;;;;;;34.02;15.52;98819.06;6933565;28;20199;-79
2022/08/11 16:09:32;;;;;;;2.87;1.97;;;;;;;34.48;15.42;98816.34;6950977;28;20291;-80
2022/08/11 16:16:13;;;;;;;2.77;1.90;;;;;;;33.75;15.62;98817.91;6952406;28;20237;-79
2022/08/11 16:16:42;;;;;;;2.53;2.07;;;;;;;34.54;15.22;98811.31;6951390;28;20206;-80
2022/08/11 16:20:07;;;;;;;2.20;1.77;;;;;;;34.97;14.88;98797.97;6951467;28;20218;-80
2022/08/11 16:23:30;;;;;;;3.13;1.87;;;;;;;33.37;15.75;98819.53;6952114;28;20274;-79
2022/08/11 16:26:54;;;;;;;1.90;1.80;;;;;;;33.60;16.16;98815.03;6950249;28;20214;-79
2022/08/11 16:30:16;;;;;;;2.03;1.77;;;;;;;33.08;16.43;98809.41;6951324;28;20207;-79
2022/08/11 16:33:39;;;;;;;2.63;1.80;;;;;;;32.88;16.37;98815.97;6951202;28;20235;-79
2022/08/11 16:40:43;;;;;;;3.37;2.10;;;;;;;33.63;15.88;98800.34;6931144;28;20262;-79
2022/08/11 16:47:45;;;;;;;4.90;2.10;;;;;;;33.62;15.80;98788.34;6953973;28;20199;-79
2022/08/11 16:51:08;;;;;;;3.97;2.00;;;;;;;33.84;15.91;98807.38;6950351;28;20215;-79
2022/08/11 16:54:31;;;;;;;2.00;1.90;;;;;;;33.54;16.20;98785.72;6950058;28;20324;-79
2022/08/11 17:01:33;;;;;;;2.13;1.90;;;;;;;33.82;16.10;98806.94;6957146;28;20199;-79
2022/08/11 17:16:07;;;;;;;4.10;2.27;;;;;;;33.87;16.02;98800.25;6949992;28;20207;-79
2022/08/11 17:19:32;;;;;;;3.03;1.83;;;;;;;33.98;15.84;98802.19;6949372;28;20217;-80
2022/08/11 17:26:57;;;;;;;4.90;1.77;;;;;;;33.53;16.04;98795.22;6923272;28;20184;-79
2022/08/11 17:30:18;;;;;;;2.20;2.00;;;;;;;33.94;15.75;98778.88;6923772;28;20192;-79
2022/08/11 17:37:36;;;;;;;7.50;3.93;;;;;;;32.91;16.59;98778.94;6898108;28;20203;-83
2022/08/11 17:48:26;;;;;;;3.53;2.70;;;;;;;33.32;16.70;98787.03;6927164;28;20637;-80
2022/08/11 18:06:30;;;;;;;3.30;2.00;;;;;;;33.25;16.98;98772.03;6924894;28;20198;-78
